Accedi per prenotare

Caricamento...

Situazione Metar e Taf aeroporto Pisa - Effemeridi Aeroporto Lucca

[Source: ADDS]
METAR
LIRP 220245Z 10008KT CAVOK 14/05 Q1011 NOSIG =
LIRP 212300Z 2200/2224 09005KT CAVOK BECMG 2204/2206 07015KT TEMPO 2209/2221 07018G30KT BECMG 2214/2216 9999 SCT040 BKN060 TEMPO 2216/2224 5000 RA BR PROB40 TEMPO 2218/2224 3000 SHRA BR FEW015CB BKN030
TAF
LIRP 212300Z 2200/2224 09005KT CAVOK BECMG 2204/2206 07015KT TEMPO 2209/2221 07018G30KT BECMG 2214/2216 9999 SCT040 BKN060 TEMPO 2216/2224 5000 RA BR PROB40 TEMPO 2218/2224 3000 SHRA BR FEW015CB BKN030 =
SR / SS: 04:27 / 18:09 UTC (Effemeridi LIQL 2019-04-22)